sensor_id;sensor_type;location;lat;lon;timestamp;P1;durP1;ratioP1;P2;durP2;ratioP2
25365;SDS011;13315;48.274;-1.900;2022-07-18T00:01:40;1043.05;;;934.90;;
25365;SDS011;13315;48.274;-1.900;2022-07-18T00:04:06;1027.45;;;922.15;;
25365;SDS011;13315;48.274;-1.900;2022-07-18T00:06:32;1019.05;;;914.45;;
25365;SDS011;13315;48.274;-1.900;2022-07-18T00:08:58;1009.10;;;905.15;;
25365;SDS011;13315;48.274;-1.900;2022-07-18T00:11:24;1018.88;;;914.15;;
25365;SDS011;13315;48.274;-1.900;2022-07-18T00:13:50;1030.40;;;923.33;;
25365;SDS011;13315;48.274;-1.900;2022-07-18T00:16:17;1024.63;;;917.67;;
25365;SDS011;13315;48.274;-1.900;2022-07-18T00:18:43;1032.07;;;924.45;;
25365;SDS011;13315;48.274;-1.900;2022-07-18T00:21:10;1028.00;;;920.80;;
25365;SDS011;13315;48.274;-1.900;2022-07-18T00:23:36;1013.92;;;909.35;;
25365;SDS011;13315;48.274;-1.900;2022-07-18T00:26:02;1008.95;;;904.85;;
25365;SDS011;13315;48.274;-1.900;2022-07-18T00:28:28;1014.50;;;909.92;;
25365;SDS011;13315;48.274;-1.900;2022-07-18T00:30:54;1031.10;;;923.67;;
25365;SDS011;13315;48.274;-1.900;2022-07-18T00:33:21;1024.40;;;917.17;;
25365;SDS011;13315;48.274;-1.900;2022-07-18T00:35:47;1018.47;;;911.65;;
25365;SDS011;13315;48.274;-1.900;2022-07-18T00:38:13;1021.63;;;913.80;;
25365;SDS011;13315;48.274;-1.900;2022-07-18T00:40:40;1014.70;;;908.92;;
25365;SDS011;13315;48.274;-1.900;2022-07-18T00:43:06;1016.70;;;911.95;;
25365;SDS011;13315;48.274;-1.900;2022-07-18T00:45:32;999.90;;;896.13;;
25365;SDS011;13315;48.274;-1.900;2022-07-18T00:47:58;1001.97;;;897.95;;
25365;SDS011;13315;48.274;-1.900;2022-07-18T00:50:30;1005.67;;;901.60;;
25365;SDS011;13315;48.274;-1.900;2022-07-18T00:52:56;1010.15;;;904.65;;
25365;SDS011;13315;48.274;-1.900;2022-07-18T00:55:22;1015.30;;;908.67;;
25365;SDS011;13315;48.274;-1.900;2022-07-18T00:57:48;1018.75;;;911.35;;
25365;SDS011;13315;48.274;-1.900;2022-07-18T01:00:14;1019.00;;;911.83;;
25365;SDS011;13315;48.274;-1.900;2022-07-18T01:02:59;998.45;;;894.45;;
25365;SDS011;13315;48.274;-1.900;2022-07-18T01:05:26;1013.00;;;906.85;;
25365;SDS011;13315;48.274;-1.900;2022-07-18T01:07:52;1001.40;;;896.17;;
25365;SDS011;13315;48.274;-1.900;2022-07-18T01:10:18;1000.92;;;895.60;;
25365;SDS011;13315;48.274;-1.900;2022-07-18T01:12:44;1005.03;;;899.25;;
25365;SDS011;13315;48.274;-1.900;2022-07-18T01:15:11;993.20;;;889.50;;
25365;SDS011;13315;48.274;-1.900;2022-07-18T01:17:37;993.72;;;890.33;;
25365;SDS011;13315;48.274;-1.900;2022-07-18T01:20:04;994.72;;;891.30;;
25365;SDS011;13315;48.274;-1.900;2022-07-18T01:22:30;999.55;;;895.95;;
25365;SDS011;13315;48.274;-1.900;2022-07-18T01:24:56;1010.40;;;904.38;;
25365;SDS011;13315;48.274;-1.900;2022-07-18T01:27:22;1010.15;;;903.63;;
25365;SDS011;13315;48.274;-1.900;2022-07-18T01:29:49;1015.85;;;909.10;;
25365;SDS011;13315;48.274;-1.900;2022-07-18T01:32:15;1001.45;;;895.47;;
25365;SDS011;13315;48.274;-1.900;2022-07-18T01:34:42;1000.15;;;895.63;;
25365;SDS011;13315;48.274;-1.900;2022-07-18T01:37:08;989.10;;;885.85;;
25365;SDS011;13315;48.274;-1.900;2022-07-18T01:39:35;994.60;;;891.20;;
25365;SDS011;13315;48.274;-1.900;2022-07-18T01:42:02;990.35;;;887.05;;
25365;SDS011;13315;48.274;-1.900;2022-07-18T01:44:29;984.95;;;882.15;;
25365;SDS011;13315;48.274;-1.900;2022-07-18T01:46:55;988.90;;;883.42;;
25365;SDS011;13315;48.274;-1.900;2022-07-18T01:49:22;988.53;;;882.97;;
25365;SDS011;13315;48.274;-1.900;2022-07-18T01:51:49;997.88;;;891.63;;
25365;SDS011;13315;48.274;-1.900;2022-07-18T01:54:15;980.22;;;876.50;;
25365;SDS011;13315;48.274;-1.900;2022-07-18T01:56:41;984.50;;;881.72;;
25365;SDS011;13315;48.274;-1.900;2022-07-18T01:59:07;974.78;;;872.55;;
25365;SDS011;13315;48.274;-1.900;2022-07-18T02:01:33;968.25;;;866.50;;
25365;SDS011;13315;48.274;-1.900;2022-07-18T02:03:59;992.55;;;887.35;;
25365;SDS011;13315;48.274;-1.900;2022-07-18T02:06:25;985.90;;;880.58;;
25365;SDS011;13315;48.274;-1.900;2022-07-18T02:08:51;978.58;;;873.83;;
25365;SDS011;13315;48.274;-1.900;2022-07-18T02:11:17;974.40;;;870.30;;
25365;SDS011;13315;48.274;-1.900;2022-07-18T02:13:44;963.50;;;862.15;;
25365;SDS011;13315;48.274;-1.900;2022-07-18T02:16:10;955.78;;;854.72;;
25365;SDS011;13315;48.274;-1.900;2022-07-18T02:18:36;971.60;;;869.70;;
25365;SDS011;13315;48.274;-1.900;2022-07-18T02:21:02;962.42;;;860.70;;
25365;SDS011;13315;48.274;-1.900;2022-07-18T02:23:28;983.90;;;878.80;;
25365;SDS011;13315;48.274;-1.900;2022-07-18T02:25:54;966.83;;;862.78;;
25365;SDS011;13315;48.274;-1.900;2022-07-18T02:28:21;975.70;;;871.67;;
25365;SDS011;13315;48.274;-1.900;2022-07-18T02:30:47;975.17;;;871.70;;
25365;SDS011;13315;48.274;-1.900;2022-07-18T02:33:14;969.53;;;867.53;;
25365;SDS011;13315;48.274;-1.900;2022-07-18T02:35:40;964.00;;;862.47;;
25365;SDS011;13315;48.274;-1.900;2022-07-18T02:38:07;962.30;;;861.00;;
25365;SDS011;13315;48.274;-1.900;2022-07-18T02:40:33;960.03;;;858.67;;
25365;SDS011;13315;48.274;-1.900;2022-07-18T02:42:59;979.40;;;874.63;;
25365;SDS011;13315;48.274;-1.900;2022-07-18T02:45:25;974.08;;;869.63;;
25365;SDS011;13315;48.274;-1.900;2022-07-18T02:47:52;983.80;;;879.40;;
25365;SDS011;13315;48.274;-1.900;2022-07-18T02:50:18;982.50;;;878.60;;
25365;SDS011;13315;48.274;-1.900;2022-07-18T02:52:44;961.35;;;859.92;;
25365;SDS011;13315;48.274;-1.900;2022-07-18T02:55:11;965.45;;;863.97;;
25365;SDS011;13315;48.274;-1.900;2022-07-18T02:57:37;961.30;;;859.63;;
25365;SDS011;13315;48.274;-1.900;2022-07-18T03:00:04;984.35;;;879.65;;
25365;SDS011;13315;48.274;-1.900;2022-07-18T03:02:31;980.38;;;874.90;;
25365;SDS011;13315;48.274;-1.900;2022-07-18T03:04:57;974.50;;;869.67;;
25365;SDS011;13315;48.274;-1.900;2022-07-18T03:07:23;978.97;;;873.80;;
25365;SDS011;13315;48.274;-1.900;2022-07-18T03:09:49;973.63;;;869.38;;
25365;SDS011;13315;48.274;-1.900;2022-07-18T03:12:16;947.97;;;847.13;;
25365;SDS011;13315;48.274;-1.900;2022-07-18T03:14:42;963.55;;;861.72;;
25365;SDS011;13315;48.274;-1.900;2022-07-18T03:17:09;956.50;;;854.70;;
25365;SDS011;13315;48.274;-1.900;2022-07-18T03:19:35;960.17;;;858.13;;
25365;SDS011;13315;48.274;-1.900;2022-07-18T03:22:02;971.38;;;867.45;;
25365;SDS011;13315;48.274;-1.900;2022-07-18T03:24:28;967.80;;;863.88;;
25365;SDS011;13315;48.274;-1.900;2022-07-18T03:26:55;972.75;;;868.42;;
25365;SDS011;13315;48.274;-1.900;2022-07-18T03:29:21;968.85;;;865.33;;
25365;SDS011;13315;48.274;-1.900;2022-07-18T03:31:47;950.95;;;849.53;;
25365;SDS011;13315;48.274;-1.900;2022-07-18T03:34:13;966.42;;;864.63;;
25365;SDS011;13315;48.274;-1.900;2022-07-18T03:36:39;950.28;;;849.22;;
25365;SDS011;13315;48.274;-1.900;2022-07-18T03:39:09;948.45;;;847.53;;
25365;SDS011;13315;48.274;-1.900;2022-07-18T03:41:35;971.83;;;867.35;;
25365;SDS011;13315;48.274;-1.900;2022-07-18T03:44:02;959.42;;;855.60;;
25365;SDS011;13315;48.274;-1.900;2022-07-18T03:46:29;973.65;;;868.70;;
25365;SDS011;13315;48.274;-1.900;2022-07-18T03:48:55;961.67;;;857.65;;
25365;SDS011;13315;48.274;-1.900;2022-07-18T03:51:21;954.58;;;852.00;;
25365;SDS011;13315;48.274;-1.900;2022-07-18T03:53:47;955.17;;;853.25;;
25365;SDS011;13315;48.274;-1.900;2022-07-18T03:56:13;956.20;;;853.92;;
25365;SDS011;13315;48.274;-1.900;2022-07-18T03:58:39;943.53;;;842.45;;
25365;SDS011;13315;48.274;-1.900;2022-07-18T04:01:05;972.83;;;868.10;;
25365;SDS011;13315;48.274;-1.900;2022-07-18T04:03:32;971.60;;;866.97;;
25365;SDS011;13315;48.274;-1.900;2022-07-18T04:05:58;965.53;;;861.28;;
25365;SDS011;13315;48.274;-1.900;2022-07-18T04:08:24;966.58;;;862.75;;
25365;SDS011;13315;48.274;-1.900;2022-07-18T04:10:50;953.00;;;851.30;;
25365;SDS011;13315;48.274;-1.900;2022-07-18T04:13:16;953.15;;;851.95;;
25365;SDS011;13315;48.274;-1.900;2022-07-18T04:15:42;957.85;;;856.08;;
25365;SDS011;13315;48.274;-1.900;2022-07-18T04:18:09;956.35;;;854.97;;
25365;SDS011;13315;48.274;-1.900;2022-07-18T04:20:35;963.53;;;859.60;;
25365;SDS011;13315;48.274;-1.900;2022-07-18T04:23:04;961.50;;;858.08;;
25365;SDS011;13315;48.274;-1.900;2022-07-18T04:25:35;959.10;;;855.35;;
25365;SDS011;13315;48.274;-1.900;2022-07-18T04:28:01;973.85;;;869.58;;
25365;SDS011;13315;48.274;-1.900;2022-07-18T04:30:28;955.75;;;853.03;;
25365;SDS011;13315;48.274;-1.900;2022-07-18T04:32:54;955.20;;;852.20;;
25365;SDS011;13315;48.274;-1.900;2022-07-18T04:35:21;951.17;;;850.20;;
25365;SDS011;13315;48.274;-1.900;2022-07-18T04:37:47;948.25;;;846.92;;
25365;SDS011;13315;48.274;-1.900;2022-07-18T04:40:13;946.05;;;844.85;;
25365;SDS011;13315;48.274;-1.900;2022-07-18T04:42:40;956.05;;;854.72;;
25365;SDS011;13315;48.274;-1.900;2022-07-18T04:45:06;957.13;;;853.40;;
25365;SDS011;13315;48.274;-1.900;2022-07-18T04:47:33;962.13;;;857.70;;
25365;SDS011;13315;48.274;-1.900;2022-07-18T04:49:59;962.38;;;859.15;;
25365;SDS011;13315;48.274;-1.900;2022-07-18T04:52:25;958.75;;;855.88;;
25365;SDS011;13315;48.274;-1.900;2022-07-18T04:54:52;954.55;;;853.10;;
25365;SDS011;13315;48.274;-1.900;2022-07-18T04:57:18;955.22;;;853.67;;
25365;SDS011;13315;48.274;-1.900;2022-07-18T04:59:44;950.97;;;849.47;;
25365;SDS011;13315;48.274;-1.900;2022-07-18T05:02:11;958.88;;;856.65;;
25365;SDS011;13315;48.274;-1.900;2022-07-18T05:04:37;956.83;;;853.42;;
25365;SDS011;13315;48.274;-1.900;2022-07-18T05:07:04;965.25;;;861.13;;
25365;SDS011;13315;48.274;-1.900;2022-07-18T05:09:31;961.63;;;857.30;;
25365;SDS011;13315;48.274;-1.900;2022-07-18T05:11:58;959.50;;;856.25;;
25365;SDS011;13315;48.274;-1.900;2022-07-18T05:14:24;951.58;;;850.03;;
25365;SDS011;13315;48.274;-1.900;2022-07-18T05:16:50;955.70;;;854.17;;
25365;SDS011;13315;48.274;-1.900;2022-07-18T05:19:16;949.60;;;848.30;;
25365;SDS011;13315;48.274;-1.900;2022-07-18T05:21:43;964.28;;;862.22;;
25365;SDS011;13315;48.274;-1.900;2022-07-18T05:24:09;963.17;;;859.55;;
25365;SDS011;13315;48.274;-1.900;2022-07-18T05:26:35;971.38;;;866.40;;
25365;SDS011;13315;48.274;-1.900;2022-07-18T05:29:02;982.88;;;877.92;;
25365;SDS011;13315;48.274;-1.900;2022-07-18T05:31:28;984.25;;;879.40;;
25365;SDS011;13315;48.274;-1.900;2022-07-18T05:33:54;963.22;;;861.25;;
25365;SDS011;13315;48.274;-1.900;2022-07-18T05:36:20;968.65;;;866.53;;
25365;SDS011;13315;48.274;-1.900;2022-07-18T05:38:46;971.55;;;869.05;;
25365;SDS011;13315;48.274;-1.900;2022-07-18T05:41:12;989.22;;;883.90;;
25365;SDS011;13315;48.274;-1.900;2022-07-18T05:43:38;981.90;;;877.13;;
25365;SDS011;13315;48.274;-1.900;2022-07-18T05:46:05;980.25;;;875.92;;
25365;SDS011;13315;48.274;-1.900;2022-07-18T05:48:31;994.00;;;888.50;;
25365;SDS011;13315;48.274;-1.900;2022-07-18T05:50:57;982.90;;;878.63;;
25365;SDS011;13315;48.274;-1.900;2022-07-18T05:53:23;982.05;;;879.08;;
25365;SDS011;13315;48.274;-1.900;2022-07-18T05:55:49;978.15;;;875.38;;
25365;SDS011;13315;48.274;-1.900;2022-07-18T05:58:15;978.60;;;875.88;;
25365;SDS011;13315;48.274;-1.900;2022-07-18T06:00:42;993.38;;;888.13;;
25365;SDS011;13315;48.274;-1.900;2022-07-18T06:03:08;1000.28;;;894.10;;
25365;SDS011;13315;48.274;-1.900;2022-07-18T06:05:34;1002.78;;;896.78;;
25365;SDS011;13315;48.274;-1.900;2022-07-18T06:08:00;1007.58;;;901.08;;
25365;SDS011;13315;48.274;-1.900;2022-07-18T06:10:26;993.10;;;889.65;;
25365;SDS011;13315;48.274;-1.900;2022-07-18T06:12:53;997.60;;;893.55;;
25365;SDS011;13315;48.274;-1.900;2022-07-18T06:15:19;996.65;;;892.95;;
25365;SDS011;13315;48.274;-1.900;2022-07-18T06:17:45;1002.30;;;898.05;;
25365;SDS011;13315;48.274;-1.900;2022-07-18T06:20:11;1002.97;;;897.03;;
25365;SDS011;13315;48.274;-1.900;2022-07-18T06:22:37;1011.78;;;905.00;;
25365;SDS011;13315;48.274;-1.900;2022-07-18T06:25:04;1006.08;;;899.63;;
25365;SDS011;13315;48.274;-1.900;2022-07-18T06:27:30;1010.20;;;904.60;;
25365;SDS011;13315;48.274;-1.900;2022-07-18T06:29:56;1011.72;;;906.97;;
25365;SDS011;13315;48.274;-1.900;2022-07-18T06:32:24;1008.15;;;903.45;;
25365;SDS011;13315;48.274;-1.900;2022-07-18T06:34:50;1007.45;;;902.78;;
25365;SDS011;13315;48.274;-1.900;2022-07-18T06:37:16;1025.40;;;918.08;;
25365;SDS011;13315;48.274;-1.900;2022-07-18T06:39:42;1018.42;;;911.03;;
25365;SDS011;13315;48.274;-1.900;2022-07-18T06:42:08;1027.40;;;919.25;;
25365;SDS011;13315;48.274;-1.900;2022-07-18T06:44:34;1028.07;;;919.78;;
25365;SDS011;13315;48.274;-1.900;2022-07-18T06:47:00;1022.40;;;916.20;;
25365;SDS011;13315;48.274;-1.900;2022-07-18T06:49:26;1023.13;;;917.45;;
25365;SDS011;13315;48.274;-1.900;2022-07-18T06:51:52;1013.17;;;907.90;;
25365;SDS011;13315;48.274;-1.900;2022-07-18T06:54:19;1020.88;;;914.97;;
25365;SDS011;13315;48.274;-1.900;2022-07-18T06:56:45;1033.13;;;925.35;;
25365;SDS011;13315;48.274;-1.900;2022-07-18T06:59:12;1033.45;;;925.70;;
25365;SDS011;13315;48.274;-1.900;2022-07-18T07:01:38;1027.18;;;919.42;;
25365;SDS011;13315;48.274;-1.900;2022-07-18T07:04:04;1031.05;;;923.38;;
25365;SDS011;13315;48.274;-1.900;2022-07-18T07:06:30;1024.32;;;918.60;;
25365;SDS011;13315;48.274;-1.900;2022-07-18T07:08:56;1035.25;;;928.70;;
25365;SDS011;13315;48.274;-1.900;2022-07-18T07:11:22;1028.15;;;921.88;;
25365;SDS011;13315;48.274;-1.900;2022-07-18T07:13:49;1041.90;;;933.85;;
25365;SDS011;13315;48.274;-1.900;2022-07-18T07:16:15;1049.00;;;939.33;;
25365;SDS011;13315;48.274;-1.900;2022-07-18T07:18:41;1058.10;;;948.15;;
25365;SDS011;13315;48.274;-1.900;2022-07-18T07:21:07;1050.03;;;940.45;;
25365;SDS011;13315;48.274;-1.900;2022-07-18T07:23:34;1052.53;;;943.65;;
25365;SDS011;13315;48.274;-1.900;2022-07-18T07:26:00;1048.32;;;941.17;;
25365;SDS011;13315;48.274;-1.900;2022-07-18T07:28:26;1045.00;;;937.80;;
25365;SDS011;13315;48.274;-1.900;2022-07-18T07:30:52;1049.88;;;942.53;;
25365;SDS011;13315;48.274;-1.900;2022-07-18T07:33:18;1070.85;;;960.17;;
25365;SDS011;13315;48.274;-1.900;2022-07-18T07:35:44;1063.47;;;952.60;;
25365;SDS011;13315;48.274;-1.900;2022-07-18T07:38:10;1055.78;;;946.00;;
25365;SDS011;13315;48.274;-1.900;2022-07-18T07:40:42;1069.97;;;959.45;;
25365;SDS011;13315;48.274;-1.900;2022-07-18T07:43:12;1062.15;;;952.17;;
25365;SDS011;13315;48.274;-1.900;2022-07-18T07:45:38;1058.28;;;948.33;;
25365;SDS011;13315;48.274;-1.900;2022-07-18T07:48:05;1061.57;;;952.47;;
25365;SDS011;13315;48.274;-1.900;2022-07-18T07:50:31;1056.05;;;948.40;;
25365;SDS011;13315;48.274;-1.900;2022-07-18T07:52:58;1061.30;;;953.00;;
25365;SDS011;13315;48.274;-1.900;2022-07-18T07:55:24;1056.35;;;948.47;;
25365;SDS011;13315;48.274;-1.900;2022-07-18T07:57:50;1070.78;;;961.08;;
25365;SDS011;13315;48.274;-1.900;2022-07-18T08:00:17;1071.78;;;961.13;;
25365;SDS011;13315;48.274;-1.900;2022-07-18T08:03:16;1082.95;;;971.13;;
25365;SDS011;13315;48.274;-1.900;2022-07-18T08:05:43;1063.53;;;954.33;;
25365;SDS011;13315;48.274;-1.900;2022-07-18T08:08:09;1064.82;;;954.60;;
25365;SDS011;13315;48.274;-1.900;2022-07-18T08:10:35;1072.65;;;962.60;;
25365;SDS011;13315;48.274;-1.900;2022-07-18T08:13:02;1070.28;;;961.47;;
25365;SDS011;13315;48.274;-1.900;2022-07-18T08:15:28;1067.82;;;959.10;;
25365;SDS011;13315;48.274;-1.900;2022-07-18T08:17:54;1073.47;;;964.40;;
25365;SDS011;13315;48.274;-1.900;2022-07-18T08:20:20;1089.88;;;977.78;;
25365;SDS011;13315;48.274;-1.900;2022-07-18T08:22:53;1093.25;;;980.63;;
25365;SDS011;13315;48.274;-1.900;2022-07-18T08:25:19;1102.05;;;988.92;;
25365;SDS011;13315;48.274;-1.900;2022-07-18T08:27:46;1095.40;;;982.65;;
25365;SDS011;13315;48.274;-1.900;2022-07-18T08:30:12;1091.90;;;979.70;;
25365;SDS011;13315;48.274;-1.900;2022-07-18T08:32:38;1092.95;;;981.40;;
25365;SDS011;13315;48.274;-1.900;2022-07-18T08:35:04;1093.47;;;982.88;;
25365;SDS011;13315;48.274;-1.900;2022-07-18T08:37:32;1094.53;;;984.03;;
25365;SDS011;13315;48.274;-1.900;2022-07-18T08:39:58;1101.65;;;990.22;;
25365;SDS011;13315;48.274;-1.900;2022-07-18T08:42:25;1099.72;;;988.22;;
25365;SDS011;13315;48.274;-1.900;2022-07-18T08:44:55;1110.00;;;995.17;;
25365;SDS011;13315;48.274;-1.900;2022-07-18T08:47:22;1112.50;;;995.88;;
25365;SDS011;13315;48.274;-1.900;2022-07-18T08:49:51;1118.10;;;998.50;;
25365;SDS011;13315;48.274;-1.900;2022-07-18T08:52:18;1119.90;;;998.30;;
25365;SDS011;13315;48.274;-1.900;2022-07-18T08:54:45;1122.43;;;998.22;;
25365;SDS011;13315;48.274;-1.900;2022-07-18T08:57:14;1122.05;;;998.85;;
25365;SDS011;13315;48.274;-1.900;2022-07-18T08:59:40;1130.22;;;999.90;;
25365;SDS011;13315;48.274;-1.900;2022-07-18T09:02:06;1124.20;;;999.70;;
25365;SDS011;13315;48.274;-1.900;2022-07-18T09:04:40;1122.95;;;999.72;;
25365;SDS011;13315;48.274;-1.900;2022-07-18T09:07:07;1121.60;;;999.22;;
25365;SDS011;13315;48.274;-1.900;2022-07-18T09:09:34;1123.72;;;999.75;;
25365;SDS011;13315;48.274;-1.900;2022-07-18T09:12:02;1136.63;;;999.90;;
25365;SDS011;13315;48.274;-1.900;2022-07-18T09:14:47;1115.68;;;997.08;;
25365;SDS011;13315;48.274;-1.900;2022-07-18T09:17:18;1133.10;;;999.90;;
25365;SDS011;13315;48.274;-1.900;2022-07-18T09:22:31;1117.50;;;998.25;;
25365;SDS011;13315;48.274;-1.900;2022-07-18T09:30:11;1126.60;;;999.90;;
25365;SDS011;13315;48.274;-1.900;2022-07-18T09:32:39;1128.40;;;999.90;;
25365;SDS011;13315;48.274;-1.900;2022-07-18T09:35:06;1135.30;;;999.90;;
25365;SDS011;13315;48.274;-1.900;2022-07-18T09:37:33;1135.17;;;999.90;;
25365;SDS011;13315;48.274;-1.900;2022-07-18T09:40:18;1126.43;;;999.90;;
25365;SDS011;13315;48.274;-1.900;2022-07-18T09:42:50;1136.13;;;999.90;;
25365;SDS011;13315;48.274;-1.900;2022-07-18T09:45:21;1144.88;;;999.90;;
25365;SDS011;13315;48.274;-1.900;2022-07-18T09:47:51;1145.63;;;999.90;;
25365;SDS011;13315;48.274;-1.900;2022-07-18T09:50:36;1137.55;;;999.90;;
25365;SDS011;13315;48.274;-1.900;2022-07-18T09:53:15;1144.90;;;999.90;;
25365;SDS011;13315;48.274;-1.900;2022-07-18T09:55:48;1146.00;;;999.90;;
25365;SDS011;13315;48.274;-1.900;2022-07-18T09:58:15;1155.88;;;999.90;;
25365;SDS011;13315;48.274;-1.900;2022-07-18T10:00:42;1151.68;;;999.90;;
25365;SDS011;13315;48.274;-1.900;2022-07-18T10:03:09;1134.13;;;999.90;;
25365;SDS011;13315;48.274;-1.900;2022-07-18T10:05:37;1151.47;;;999.90;;
25365;SDS011;13315;48.274;-1.900;2022-07-18T10:08:05;1143.63;;;999.90;;
25365;SDS011;13315;48.274;-1.900;2022-07-18T10:10:32;1142.35;;;999.90;;
25365;SDS011;13315;48.274;-1.900;2022-07-18T10:12:59;1165.50;;;999.90;;
25365;SDS011;13315;48.274;-1.900;2022-07-18T10:15:26;1145.18;;;999.90;;
25365;SDS011;13315;48.274;-1.900;2022-07-18T10:17:53;1152.43;;;999.90;;
25365;SDS011;13315;48.274;-1.900;2022-07-18T10:20:29;1153.13;;;999.90;;
25365;SDS011;13315;48.274;-1.900;2022-07-18T10:22:56;1145.10;;;999.90;;
25365;SDS011;13315;48.274;-1.900;2022-07-18T10:25:22;1165.13;;;999.90;;
25365;SDS011;13315;48.274;-1.900;2022-07-18T10:28:22;1151.65;;;999.90;;
25365;SDS011;13315;48.274;-1.900;2022-07-18T10:30:42;1141.13;;;999.90;;
25365;SDS011;13315;48.274;-1.900;2022-07-18T10:38:20;1150.32;;;999.90;;
25365;SDS011;13315;48.274;-1.900;2022-07-18T10:41:06;1163.75;;;999.90;;
25365;SDS011;13315;48.274;-1.900;2022-07-18T10:43:42;1149.20;;;999.90;;
25365;SDS011;13315;48.274;-1.900;2022-07-18T10:46:10;1148.82;;;999.90;;
25365;SDS011;13315;48.274;-1.900;2022-07-18T10:51:07;1157.22;;;999.90;;
25365;SDS011;13315;48.274;-1.900;2022-07-18T10:56:18;1172.07;;;999.90;;
25365;SDS011;13315;48.274;-1.900;2022-07-18T10:58:44;1153.70;;;999.90;;
25365;SDS011;13315;48.274;-1.900;2022-07-18T11:01:15;1157.15;;;999.90;;
25365;SDS011;13315;48.274;-1.900;2022-07-18T11:03:42;1152.68;;;999.90;;
25365;SDS011;13315;48.274;-1.900;2022-07-18T11:06:08;1155.05;;;999.90;;
25365;SDS011;13315;48.274;-1.900;2022-07-18T11:08:34;1151.57;;;999.90;;
25365;SDS011;13315;48.274;-1.900;2022-07-18T11:11:04;1172.93;;;999.90;;
25365;SDS011;13315;48.274;-1.900;2022-07-18T11:13:32;1171.70;;;999.90;;
25365;SDS011;13315;48.274;-1.900;2022-07-18T11:16:19;1156.50;;;999.90;;
25365;SDS011;13315;48.274;-1.900;2022-07-18T11:21:31;1168.77;;;999.90;;
25365;SDS011;13315;48.274;-1.900;2022-07-18T11:24:04;1168.13;;;999.90;;
25365;SDS011;13315;48.274;-1.900;2022-07-18T11:26:35;1142.38;;;999.90;;
25365;SDS011;13315;48.274;-1.900;2022-07-18T11:29:06;1146.43;;;999.90;;
25365;SDS011;13315;48.274;-1.900;2022-07-18T11:31:42;1151.75;;;999.90;;
25365;SDS011;13315;48.274;-1.900;2022-07-18T11:34:08;1154.65;;;999.90;;
25365;SDS011;13315;48.274;-1.900;2022-07-18T11:36:35;1148.05;;;999.90;;
25365;SDS011;13315;48.274;-1.900;2022-07-18T11:39:04;1145.93;;;999.90;;
25365;SDS011;13315;48.274;-1.900;2022-07-18T11:41:30;1161.55;;;999.90;;
25365;SDS011;13315;48.274;-1.900;2022-07-18T11:43:57;1155.03;;;999.90;;
25365;SDS011;13315;48.274;-1.900;2022-07-18T11:46:27;1174.53;;;999.90;;
25365;SDS011;13315;48.274;-1.900;2022-07-18T11:48:59;1152.28;;;999.90;;
25365;SDS011;13315;48.274;-1.900;2022-07-18T11:51:25;1159.95;;;999.90;;
25365;SDS011;13315;48.274;-1.900;2022-07-18T11:53:59;1159.72;;;999.90;;
25365;SDS011;13315;48.274;-1.900;2022-07-18T11:56:25;1167.88;;;999.90;;
25365;SDS011;13315;48.274;-1.900;2022-07-18T11:58:51;1157.50;;;999.90;;
25365;SDS011;13315;48.274;-1.900;2022-07-18T12:01:18;1159.55;;;999.90;;
25365;SDS011;13315;48.274;-1.900;2022-07-18T12:03:48;1149.32;;;999.90;;
25365;SDS011;13315;48.274;-1.900;2022-07-18T12:06:19;1145.60;;;999.90;;
25365;SDS011;13315;48.274;-1.900;2022-07-18T12:08:46;1141.30;;;999.90;;
25365;SDS011;13315;48.274;-1.900;2022-07-18T12:16:24;1155.88;;;999.90;;
25365;SDS011;13315;48.274;-1.900;2022-07-18T12:18:51;1163.05;;;999.90;;
25365;SDS011;13315;48.274;-1.900;2022-07-18T12:21:17;1158.70;;;999.90;;
25365;SDS011;13315;48.274;-1.900;2022-07-18T12:23:44;1152.07;;;999.90;;
25365;SDS011;13315;48.274;-1.900;2022-07-18T12:26:25;1152.03;;;999.90;;
25365;SDS011;13315;48.274;-1.900;2022-07-18T12:29:05;1158.68;;;999.90;;
25365;SDS011;13315;48.274;-1.900;2022-07-18T12:34:14;1169.88;;;999.90;;
25365;SDS011;13315;48.274;-1.900;2022-07-18T12:36:50;1146.38;;;999.90;;
25365;SDS011;13315;48.274;-1.900;2022-07-18T12:39:26;1155.32;;;999.90;;
25365;SDS011;13315;48.274;-1.900;2022-07-18T12:41:52;1164.45;;;999.90;;
25365;SDS011;13315;48.274;-1.900;2022-07-18T12:44:19;1162.68;;;999.90;;
25365;SDS011;13315;48.274;-1.900;2022-07-18T12:46:45;1161.15;;;999.90;;
25365;SDS011;13315;48.274;-1.900;2022-07-18T12:49:11;1154.90;;;999.90;;
25365;SDS011;13315;48.274;-1.900;2022-07-18T12:51:37;1152.22;;;999.90;;
25365;SDS011;13315;48.274;-1.900;2022-07-18T12:54:03;1179.60;;;999.90;;
25365;SDS011;13315;48.274;-1.900;2022-07-18T12:56:29;1166.50;;;999.90;;
25365;SDS011;13315;48.274;-1.900;2022-07-18T12:58:55;1162.15;;;999.90;;
25365;SDS011;13315;48.274;-1.900;2022-07-18T13:01:22;1166.70;;;999.90;;
25365;SDS011;13315;48.274;-1.900;2022-07-18T13:03:48;1149.57;;;999.90;;
25365;SDS011;13315;48.274;-1.900;2022-07-18T13:06:14;1159.47;;;999.90;;
25365;SDS011;13315;48.274;-1.900;2022-07-18T13:08:40;1163.72;;;999.90;;
25365;SDS011;13315;48.274;-1.900;2022-07-18T13:11:06;1170.53;;;999.90;;
25365;SDS011;13315;48.274;-1.900;2022-07-18T13:13:32;1164.35;;;999.90;;
25365;SDS011;13315;48.274;-1.900;2022-07-18T13:15:58;1168.25;;;999.90;;
25365;SDS011;13315;48.274;-1.900;2022-07-18T13:18:24;1176.40;;;999.90;;
25365;SDS011;13315;48.274;-1.900;2022-07-18T13:20:50;1167.03;;;999.90;;
25365;SDS011;13315;48.274;-1.900;2022-07-18T13:23:17;1167.28;;;999.90;;
25365;SDS011;13315;48.274;-1.900;2022-07-18T13:25:43;1162.55;;;999.90;;
25365;SDS011;13315;48.274;-1.900;2022-07-18T13:28:10;1164.07;;;999.90;;
25365;SDS011;13315;48.274;-1.900;2022-07-18T13:30:36;1172.25;;;999.90;;
25365;SDS011;13315;48.274;-1.900;2022-07-18T13:33:05;1168.72;;;999.90;;
25365;SDS011;13315;48.274;-1.900;2022-07-18T13:35:31;1171.75;;;999.90;;
25365;SDS011;13315;48.274;-1.900;2022-07-18T13:37:57;1158.65;;;999.90;;
25365;SDS011;13315;48.274;-1.900;2022-07-18T13:40:23;1171.05;;;999.90;;
25365;SDS011;13315;48.274;-1.900;2022-07-18T13:42:50;1159.70;;;999.90;;
25365;SDS011;13315;48.274;-1.900;2022-07-18T13:45:17;1164.55;;;999.90;;
25365;SDS011;13315;48.274;-1.900;2022-07-18T13:50:10;1151.13;;;999.90;;
25365;SDS011;13315;48.274;-1.900;2022-07-18T13:52:37;1170.57;;;999.90;;
25365;SDS011;13315;48.274;-1.900;2022-07-18T13:55:03;1168.15;;;999.90;;
25365;SDS011;13315;48.274;-1.900;2022-07-18T13:57:29;1179.97;;;999.90;;
25365;SDS011;13315;48.274;-1.900;2022-07-18T13:59:55;1164.55;;;999.90;;
25365;SDS011;13315;48.274;-1.900;2022-07-18T14:02:22;1157.22;;;999.90;;
25365;SDS011;13315;48.274;-1.900;2022-07-18T14:04:48;1255.55;;;999.90;;
25365;SDS011;13315;48.274;-1.900;2022-07-18T14:07:14;1281.22;;;999.90;;
25365;SDS011;13315;48.274;-1.900;2022-07-18T14:09:45;1288.38;;;999.90;;